Time;durP1;ratioP1;P1;durP2;ratioP2;P2;SDS_P1;SDS_P2;PMS_P1;PMS_P2;Temp;Humidity;BMP_temperature;BMP_pressure;BME280_temperature;BME280_humidity;BME280_pressure;Samples;Min_cycle;Max_cycle;Signal;HPM_P1;HPM_P2
2022/05/13 00:01:58;;;;;;;8.38;2.33;;;10.30;99.90;;;;;;5054783;28;20053;-77
2022/05/13 00:04:23;;;;;;;7.03;2.40;;;10.30;99.90;;;;;;5054634;28;20044;-77
2022/05/13 00:06:49;;;;;;;7.78;2.08;;;10.40;99.90;;;;;;5054828;28;20041;-77
2022/05/13 00:09:15;;;;;;;8.25;2.15;;;10.40;99.90;;;;;;5054753;28;20366;-77
2022/05/13 00:11:41;;;;;;;8.80;2.50;;;10.40;99.90;;;;;;5054415;28;20048;-76
2022/05/13 00:14:08;;;;;;;6.90;2.58;;;10.50;99.90;;;;;;5054698;28;20448;-77
2022/05/13 00:16:35;;;;;;;11.10;2.20;;;10.50;99.90;;;;;;5054740;28;20037;-77
2022/05/13 00:19:05;;;;;;;5.00;2.03;;;10.60;99.90;;;;;;5054501;28;20048;-77
2022/05/13 00:21:32;;;;;;;6.38;2.58;;;10.60;99.90;;;;;;5054246;28;20041;-76
2022/05/13 00:23:57;;;;;;;6.80;2.40;;;10.70;99.90;;;;;;5054352;28;20488;-76
2022/05/13 00:26:23;;;;;;;9.52;2.72;;;10.70;99.90;;;;;;5054301;28;20088;-77
2022/05/13 00:28:48;;;;;;;8.52;2.65;;;10.80;99.90;;;;;;5054435;28;20129;-76
2022/05/13 00:31:15;;;;;;;8.48;2.90;;;10.80;99.90;;;;;;5054293;28;20455;-76
2022/05/13 00:33:40;;;;;;;7.90;2.20;;;10.80;99.90;;;;;;5054063;28;20041;-76
2022/05/13 00:36:06;;;;;;;13.32;2.92;;;10.90;99.90;;;;;;5054539;28;20090;-77
2022/05/13 00:38:31;;;;;;;14.15;2.55;;;10.90;99.90;;;;;;5054046;28;20041;-76
2022/05/13 00:40:57;;;;;;;10.85;2.70;;;10.90;99.90;;;;;;5054130;28;20493;-76
2022/05/13 00:43:52;;;;;;;15.80;3.17;;;10.90;99.90;;;;;;5053993;28;20048;-76
2022/05/13 00:46:19;;;;;;;14.40;3.17;;;11.00;99.90;;;;;;5053950;28;20045;-76
2022/05/13 00:48:45;;;;;;;5.65;2.10;;;11.10;99.90;;;;;;5054079;28;20572;-74
2022/05/13 00:51:14;;;;;;;7.57;2.13;;;11.10;99.90;;;;;;5052748;28;20136;-76
2022/05/13 00:53:40;;;;;;;10.80;2.85;;;11.10;99.90;;;;;;5053800;28;20056;-76
2022/05/13 00:56:06;;;;;;;6.57;2.22;;;11.10;99.90;;;;;;5053265;28;20041;-76
2022/05/13 00:58:36;;;;;;;9.07;2.33;;;11.10;99.90;;;;;;5052628;28;20072;-77
2022/05/13 01:01:02;;;;;;;9.05;2.38;;;11.10;99.90;;;;;;5053358;28;20497;-77
2022/05/13 01:03:28;;;;;;;9.23;2.80;;;11.10;99.90;;;;;;5053726;28;20122;-77
2022/05/13 01:05:57;;;;;;;7.65;1.90;;;11.10;99.90;;;;;;5053662;28;20105;-74
2022/05/13 01:08:24;;;;;;;5.65;2.40;;;11.20;99.90;;;;;;5052678;28;20037;-75
2022/05/13 01:10:50;;;;;;;5.53;1.77;;;11.10;99.90;;;;;;5053582;28;20045;-74
2022/05/13 01:13:23;;;;;;;10.43;2.60;;;11.20;99.90;;;;;;5053159;28;20524;-77
2022/05/13 01:15:51;;;;;;;14.05;2.88;;;11.20;99.90;;;;;;5053292;28;20067;-77
2022/05/13 01:18:33;;;;;;;15.55;3.00;;;11.20;99.90;;;;;;5053595;28;20086;-76
2022/05/13 01:20:59;;;;;;;11.48;2.25;;;11.10;99.90;;;;;;5052905;28;20045;-76
2022/05/13 01:23:33;;;;;;;9.75;2.33;;;11.20;99.90;;;;;;5052719;28;20041;-77
2022/05/13 01:26:14;;;;;;;9.40;2.58;;;11.20;99.90;;;;;;5053300;28;20098;-76
2022/05/13 01:28:43;;;;;;;9.75;2.17;;;11.20;99.90;;;;;;5053565;28;20041;-77
2022/05/13 01:31:13;;;;;;;9.75;2.65;;;11.20;99.90;;;;;;5053298;28;20049;-76
2022/05/13 01:33:40;;;;;;;8.02;2.35;;;11.20;99.90;;;;;;5052069;28;20045;-76
2022/05/13 01:36:09;;;;;;;9.77;2.95;;;11.20;99.90;;;;;;5052736;28;20037;-77
2022/05/13 01:38:37;;;;;;;10.93;2.72;;;11.30;99.90;;;;;;5053408;28;20071;-77
2022/05/13 01:41:04;;;;;;;11.02;3.42;;;11.30;99.90;;;;;;5053211;28;20037;-76
2022/05/13 01:43:29;;;;;;;9.50;3.00;;;11.40;99.90;;;;;;5053343;28;20098;-76
2022/05/13 01:45:56;;;;;;;15.23;3.13;;;11.30;99.90;;;;;;5052464;28;20041;-77
2022/05/13 01:48:23;;;;;;;7.75;2.60;;;11.20;99.90;;;;;;5052967;28;20053;-76
2022/05/13 01:50:49;;;;;;;9.82;3.20;;;11.20;99.90;;;;;;5052937;28;20044;-76
2022/05/13 01:53:15;;;;;;;9.82;2.75;;;11.30;99.90;;;;;;5053229;28;20105;-76
2022/05/13 01:55:42;;;;;;;9.20;2.60;;;11.30;99.90;;;;;;5052295;28;20135;-76
2022/05/13 01:58:17;;;;;;;10.48;3.55;;;11.30;99.90;;;;;;5052938;28;20493;-77
2022/05/13 02:00:46;;;;;;;8.68;2.80;;;11.30;99.90;;;;;;5120586;22;20158;-80
2022/05/13 02:05:56;;;;;;;10.38;2.80;;;11.30;99.90;;;;;;5067825;28;20053;-81
2022/05/13 02:08:23;;;;;;;11.93;2.88;;;11.30;99.90;;;;;;5066517;28;20049;-80
2022/05/13 02:10:48;;;;;;;13.02;2.47;;;11.30;99.90;;;;;;5067872;28;20128;-80
2022/05/13 02:13:15;;;;;;;10.23;2.63;;;11.30;99.90;;;;;;5068256;28;20041;-79
2022/05/13 02:15:41;;;;;;;9.18;3.05;;;11.30;99.90;;;;;;5067059;28;20104;-78
2022/05/13 02:18:08;;;;;;;12.70;2.80;;;11.30;99.90;;;;;;5074248;28;20081;-80
2022/05/13 02:20:34;;;;;;;20.88;3.58;;;11.40;99.90;;;;;;5077569;28;20055;-83
2022/05/13 02:22:59;;;;;;;13.00;3.28;;;11.30;99.90;;;;;;5078005;28;20049;-82
2022/05/13 02:25:25;;;;;;;8.15;2.45;;;11.30;99.90;;;;;;5077772;28;20013;-81
2022/05/13 02:27:51;;;;;;;10.77;3.95;;;11.30;99.90;;;;;;5076928;28;20045;-82
2022/05/13 02:30:16;;;;;;;13.95;3.10;;;11.30;99.90;;;;;;5077725;28;20032;-82
2022/05/13 02:32:42;;;;;;;8.35;3.08;;;11.30;99.90;;;;;;5077029;28;20041;-81
2022/05/13 02:35:08;;;;;;;16.27;3.50;;;11.00;99.90;;;;;;5076710;28;20071;-82
2022/05/13 02:37:34;;;;;;;8.80;3.45;;;11.30;99.90;;;;;;5066278;28;20048;-80
2022/05/13 02:40:00;;;;;;;9.40;3.70;;;11.30;99.90;;;;;;5063577;28;20076;-81
2022/05/13 02:42:26;;;;;;;10.93;2.35;;;11.30;99.90;;;;;;5062650;28;20063;-81
2022/05/13 02:44:51;;;;;;;7.90;2.60;;;11.20;99.90;;;;;;5067408;28;20077;-81
2022/05/13 02:47:17;;;;;;;11.30;3.10;;;11.20;99.90;;;;;;5067764;28;20041;-81
2022/05/13 02:49:43;;;;;;;12.13;3.67;;;11.20;99.90;;;;;;5070201;28;20048;-81
2022/05/13 02:52:10;;;;;;;13.15;2.80;;;11.20;99.90;;;;;;5085175;28;20040;-81
2022/05/13 02:54:35;;;;;;;12.65;3.28;;;11.20;99.90;;;;;;5068191;28;20048;-81
2022/05/13 02:57:01;;;;;;;15.07;2.90;;;11.20;99.90;;;;;;5068448;28;20048;-81
2022/05/13 02:59:27;;;;;;;12.40;3.85;;;11.20;99.90;;;;;;5066336;28;20342;-81
2022/05/13 03:01:54;;;;;;;11.68;2.97;;;11.10;99.90;;;;;;5068098;28;20049;-79
2022/05/13 03:04:21;;;;;;;13.70;3.45;;;11.10;99.90;;;;;;5070269;28;20102;-80
2022/05/13 03:06:46;;;;;;;8.00;3.72;;;11.10;99.90;;;;;;5069036;28;20069;-80
2022/05/13 03:09:12;;;;;;;9.98;3.28;;;11.10;99.90;;;;;;5070301;28;20037;-80
2022/05/13 03:11:38;;;;;;;12.73;2.47;;;11.00;99.90;;;;;;5071086;28;20041;-81
2022/05/13 03:14:04;;;;;;;10.85;3.00;;;11.10;99.90;;;;;;5070267;28;20065;-80
2022/05/13 03:16:30;;;;;;;8.02;2.90;;;11.10;99.90;;;;;;5070886;28;20100;-81
2022/05/13 03:18:58;;;;;;;12.00;3.33;;;11.00;99.90;;;;;;5070433;28;20041;-81
2022/05/13 03:21:25;;;;;;;11.10;3.60;;;11.00;99.90;;;;;;5071410;28;20068;-81
2022/05/13 03:23:51;;;;;;;9.20;3.55;;;11.00;99.90;;;;;;5072632;28;20067;-80
2022/05/13 03:26:19;;;;;;;9.45;3.08;;;11.00;99.90;;;;;;5077637;28;20017;-83
2022/05/13 03:28:45;;;;;;;12.70;3.25;;;11.00;99.90;;;;;;5084078;28;20051;-83
2022/05/13 03:31:11;;;;;;;13.10;3.97;;;11.00;99.90;;;;;;5083207;28;20045;-82
2022/05/13 03:33:38;;;;;;;9.93;3.40;;;11.00;99.90;;;;;;5083819;28;20084;-82
2022/05/13 03:36:04;;;;;;;10.60;4.25;;;11.00;99.90;;;;;;5083809;28;20021;-82
2022/05/13 03:38:30;;;;;;;9.93;3.42;;;11.00;99.90;;;;;;5079936;28;20493;-80
2022/05/13 03:40:55;;;;;;;15.93;3.78;;;11.00;99.90;;;;;;5072801;28;20047;-79
2022/05/13 03:43:21;;;;;;;8.10;3.78;;;11.00;99.90;;;;;;5071487;28;20041;-80
2022/05/13 03:45:47;;;;;;;13.65;4.18;;;11.40;99.90;;;;;;5070819;28;20075;-81
2022/05/13 03:48:12;;;;;;;14.90;3.80;;;11.10;99.90;;;;;;5071528;28;20097;-81
2022/05/13 03:50:43;;;;;;;14.23;4.15;;;11.10;99.90;;;;;;5070902;28;20090;-80
2022/05/13 03:53:08;;;;;;;11.68;3.55;;;11.20;99.90;;;;;;5071956;28;20145;-80
2022/05/13 03:55:35;;;;;;;9.85;3.85;;;11.20;99.90;;;;;;5067433;28;20045;-80
2022/05/13 03:58:02;;;;;;;12.25;3.70;;;11.20;99.90;;;;;;5067226;28;20059;-79
2022/05/13 04:00:28;;;;;;;10.65;4.05;;;11.20;99.90;;;;;;5069114;28;20047;-80
2022/05/13 04:02:54;;;;;;;18.17;3.65;;;11.30;99.90;;;;;;5068886;28;20065;-81
2022/05/13 04:10:48;;;;;;;14.82;3.72;;;11.40;99.90;;;;;;5076491;28;20076;-80
2022/05/13 04:16:06;;;;;;;14.85;5.88;;;11.40;99.90;;;;;;5075073;28;20052;-81
2022/05/13 04:18:36;;;;;;;12.63;3.75;;;11.40;99.90;;;;;;5075842;28;20045;-80
2022/05/13 04:21:04;;;;;;;10.88;3.88;;;11.40;99.90;;;;;;5077196;28;20059;-81
2022/05/13 04:23:32;;;;;;;20.85;4.22;;;11.40;99.90;;;;;;5076304;28;20056;-80
2022/05/13 04:25:57;;;;;;;11.77;3.50;;;11.40;99.90;;;;;;5075743;28;20017;-80
2022/05/13 04:28:23;;;;;;;13.82;4.10;;;11.40;99.90;;;;;;5070984;28;20119;-81
2022/05/13 04:30:48;;;;;;;14.48;3.65;;;11.40;99.90;;;;;;5067074;28;20063;-81
2022/05/13 04:33:15;;;;;;;13.23;4.45;;;11.40;99.90;;;;;;5064967;28;20037;-80
2022/05/13 04:35:40;;;;;;;19.98;4.13;;;11.40;99.90;;;;;;5065999;28;20112;-79
2022/05/13 04:38:07;;;;;;;13.95;3.95;;;11.40;99.90;;;;;;5065789;28;20485;-81
2022/05/13 04:40:33;;;;;;;19.23;4.03;;;11.50;99.90;;;;;;5068925;28;20040;-81
2022/05/13 04:43:00;;;;;;;17.70;4.45;;;11.50;99.90;;;;;;5064868;28;20487;-80
2022/05/13 04:45:28;;;;;;;14.65;4.35;;;11.50;99.90;;;;;;5065486;28;20536;-81
2022/05/13 04:50:43;;;;;;;18.48;3.72;;;11.50;99.90;;;;;;5063905;28;20045;-81
2022/05/13 04:53:10;;;;;;;15.02;5.30;;;11.50;99.90;;;;;;5047846;28;20064;-81
2022/05/13 04:55:37;;;;;;;16.50;4.45;;;11.50;99.90;;;;;;5066078;28;20045;-80
2022/05/13 04:58:03;;;;;;;14.13;3.83;;;11.60;99.90;;;;;;5065566;28;20088;-80
2022/05/13 05:00:29;;;;;;;15.48;4.20;;;11.60;99.90;;;;;;5066581;28;20053;-81
2022/05/13 05:02:56;;;;;;;16.95;4.32;;;11.70;99.90;;;;;;5066850;28;20044;-81
2022/05/13 05:05:23;;;;;;;19.35;4.95;;;11.70;99.90;;;;;;5067125;28;20049;-82
2022/05/13 05:07:48;;;;;;;16.35;4.70;;;11.70;99.90;;;;;;5068859;28;20070;-81
2022/05/13 05:10:14;;;;;;;14.07;3.60;;;11.70;99.90;;;;;;5068372;28;20060;-79
2022/05/13 05:12:40;;;;;;;13.82;4.57;;;12.20;99.90;;;;;;5066512;28;20048;-80
2022/05/13 05:15:08;;;;;;;25.23;4.28;;;11.70;99.90;;;;;;5069567;28;20037;-82
2022/05/13 05:17:34;;;;;;;17.45;3.83;;;11.80;99.90;;;;;;5066707;28;20103;-81
2022/05/13 05:19:59;;;;;;;14.55;4.18;;;11.90;99.90;;;;;;5068615;28;20048;-79
2022/05/13 05:22:25;;;;;;;18.00;4.30;;;12.00;99.90;;;;;;5081549;28;20052;-81
2022/05/13 05:24:50;;;;;;;19.58;4.15;;;12.10;99.90;;;;;;5064683;28;20052;-81
2022/05/13 05:27:16;;;;;;;19.02;4.82;;;12.20;99.90;;;;;;5064205;28;20041;-81
2022/05/13 05:29:44;;;;;;;16.33;3.30;;;12.20;99.90;;;;;;5056702;28;20048;-81
2022/05/13 05:32:10;;;;;;;18.67;4.57;;;12.20;99.90;;;;;;5058217;28;20100;-81
2022/05/13 05:34:36;;;;;;;19.77;4.90;;;12.20;99.90;;;;;;5057912;28;20052;-81
2022/05/13 05:37:01;;;;;;;18.00;4.40;;;12.20;99.90;;;;;;5059217;28;20121;-81
2022/05/13 05:39:27;;;;;;;18.08;4.70;;;12.30;99.90;;;;;;5058322;28;20052;-80
2022/05/13 05:41:52;;;;;;;14.05;3.22;;;12.50;99.90;;;;;;5061041;28;20052;-81
2022/05/13 05:44:18;;;;;;;14.60;3.90;;;12.60;99.90;;;;;;5059322;28;20070;-81
2022/05/13 05:46:44;;;;;;;16.80;3.33;;;12.70;99.90;;;;;;5058686;28;20044;-81
2022/05/13 05:49:10;;;;;;;20.00;4.40;;;12.80;99.90;;;;;;5058752;28;20037;-81
2022/05/13 05:51:36;;;;;;;17.42;4.22;;;13.00;99.90;;;;;;5059476;28;20057;-81
2022/05/13 05:59:30;;;;;;;12.57;3.83;;;13.80;99.90;;;;;;5078183;28;20037;-82
2022/05/13 06:01:55;;;;;;;17.50;3.80;;;14.00;99.90;;;;;;5077624;28;20032;-83
2022/05/13 06:04:21;;;;;;;12.10;3.15;;;14.10;99.90;;;;;;5077680;28;20108;-80
2022/05/13 06:06:47;;;;;;;13.63;3.20;;;14.10;99.90;;;;;;5077774;28;20021;-82
2022/05/13 06:09:13;;;;;;;13.75;3.40;;;14.10;99.90;;;;;;5077748;28;20049;-82
2022/05/13 06:11:38;;;;;;;9.57;2.75;;;14.10;99.90;;;;;;5077532;28;20021;-82
2022/05/13 06:14:04;;;;;;;15.25;3.70;;;14.20;99.90;;;;;;5077765;28;20101;-82
2022/05/13 06:16:30;;;;;;;11.15;3.33;;;14.30;99.90;;;;;;5077930;28;20040;-82
2022/05/13 06:19:01;;;;;;;14.32;3.08;;;14.40;99.90;;;;;;5077364;28;20052;-82
2022/05/13 06:21:29;;;;;;;12.70;2.65;;;14.50;99.90;;;;;;5078007;28;20028;-83
2022/05/13 06:23:54;;;;;;;11.95;3.17;;;14.50;99.90;;;;;;5078003;28;20021;-81
2022/05/13 06:26:21;;;;;;;13.23;3.38;;;14.40;99.90;;;;;;5074258;28;20037;-80
2022/05/13 06:28:47;;;;;;;14.75;2.45;;;14.40;99.90;;;;;;5059156;28;20082;-81
2022/05/13 06:31:13;;;;;;;11.07;2.83;;;14.40;99.90;;;;;;5057072;28;20652;-81
2022/05/13 06:33:39;;;;;;;14.65;3.22;;;14.60;99.90;;;;;;5056883;28;20048;-81
2022/05/13 06:36:06;;;;;;;9.13;2.80;;;14.60;99.90;;;;;;5055625;28;20095;-81
2022/05/13 06:38:31;;;;;;;13.38;2.95;;;14.70;99.90;;;;;;5053570;28;20040;-82
2022/05/13 06:40:57;;;;;;;14.70;3.40;;;14.80;99.90;;;;;;5055414;28;20509;-82
2022/05/13 06:43:23;;;;;;;10.45;2.30;;;14.90;99.90;;;;;;5054479;28;20044;-81
2022/05/13 06:45:49;;;;;;;7.47;1.98;;;15.00;99.90;;;;;;5054912;28;20053;-81
2022/05/13 06:48:15;;;;;;;13.70;2.92;;;15.10;99.90;;;;;;5054106;28;20037;-81
2022/05/13 06:50:44;;;;;;;15.00;3.10;;;15.20;99.90;;;;;;5054640;28;20041;-81
2022/05/13 06:53:10;;;;;;;10.50;2.22;;;15.40;99.90;;;;;;5054310;28;20052;-82
2022/05/13 06:55:36;;;;;;;10.20;2.40;;;15.50;99.90;;;;;;5054187;28;20033;-81
2022/05/13 06:58:02;;;;;;;12.20;2.38;;;15.50;99.90;;;;;;5054052;28;20052;-82
2022/05/13 07:00:28;;;;;;;11.68;3.47;;;15.60;99.90;;;;;;5054057;28;20057;-82
2022/05/13 07:02:53;;;;;;;7.78;2.53;;;15.60;99.90;;;;;;5055064;28;20081;-82
2022/05/13 07:05:20;;;;;;;11.70;2.35;;;15.70;99.90;;;;;;5054680;28;20041;-81
2022/05/13 07:07:47;;;;;;;8.40;1.88;;;15.70;99.90;;;;;;5055590;28;20037;-82
2022/05/13 07:10:13;;;;;;;7.20;1.80;;;15.70;97.80;;;;;;5054382;28;20112;-82
2022/05/13 07:12:39;;;;;;;9.50;2.08;;;15.80;98.30;;;;;;5050654;28;20061;-82
2022/05/13 07:15:10;;;;;;;8.65;1.70;;;15.90;96.80;;;;;;5052689;28;20051;-82
2022/05/13 07:17:37;;;;;;;12.50;2.90;;;16.10;94.70;;;;;;5054748;28;20041;-82
2022/05/13 07:20:03;;;;;;;9.27;1.85;;;16.30;93.30;;;;;;5054289;28;20056;-83
2022/05/13 07:22:29;;;;;;;9.15;1.85;;;16.60;92.40;;;;;;5052615;28;20057;-82
2022/05/13 07:24:55;;;;;;;8.52;2.00;;;16.60;90.80;;;;;;5053634;28;20507;-82
2022/05/13 07:27:22;;;;;;;6.65;1.85;;;16.60;80.90;;;;;;5052891;28;20393;-82
2022/05/13 07:29:47;;;;;;;7.85;1.70;;;16.50;82.90;;;;;;5062361;28;20037;-81
2022/05/13 07:32:13;;;;;;;7.35;1.80;;;16.40;83.50;;;;;;5055811;28;20128;-82
2022/05/13 07:34:39;;;;;;;9.77;1.90;;;16.30;84.30;;;;;;5064908;28;20037;-82
2022/05/13 07:37:05;;;;;;;6.28;1.63;;;16.00;80.20;;;;;;5057531;28;20045;-82
2022/05/13 07:42:15;;;;;;;6.50;1.65;;;17.50;67.70;;;;;;5056302;28;20489;-83
2022/05/13 07:44:41;;;;;;;5.45;1.60;;;17.50;62.60;;;;;;5054290;28;20049;-82
2022/05/13 07:47:08;;;;;;;5.25;1.75;;;17.20;66.80;;;;;;5056623;28;20510;-82
2022/05/13 07:49:35;;;;;;;9.32;1.60;;;16.70;69.30;;;;;;5055539;28;20045;-82
2022/05/13 07:52:01;;;;;;;9.98;2.17;;;16.10;74.50;;;;;;5055895;28;20092;-82
2022/05/13 07:54:27;;;;;;;6.55;1.73;;;16.20;77.50;;;;;;5056632;28;20166;-82
2022/05/13 07:56:53;;;;;;;5.95;1.88;;;16.90;71.50;;;;;;5055717;28;20390;-82
2022/05/13 07:59:19;;;;;;;14.23;2.13;;;17.50;59.90;;;;;;5055395;28;20509;-82
2022/05/13 08:01:45;;;;;;;13.15;1.90;;;17.30;58.10;;;;;;5055946;28;20052;-82
2022/05/13 08:04:12;;;;;;;9.18;1.55;;;17.40;58.60;;;;;;5055070;28;20045;-82
2022/05/13 08:06:38;;;;;;;8.82;2.05;;;17.30;62.60;;;;;;5055938;28;20124;-84
2022/05/13 08:09:03;;;;;;;12.30;2.85;;;17.60;53.90;;;;;;5056758;28;20041;-81
2022/05/13 08:11:29;;;;;;;7.88;1.67;;;18.10;56.10;;;;;;5055652;28;20052;-81
2022/05/13 08:13:56;;;;;;;4.90;1.20;;;17.20;58.90;;;;;;5055131;28;20044;-82
2022/05/13 08:16:26;;;;;;;8.18;1.95;;;17.40;53.00;;;;;;5055664;28;20092;-82
2022/05/13 08:18:58;;;;;;;7.63;1.98;;;18.30;45.20;;;;;;5055757;28;20041;-82
2022/05/13 08:21:24;;;;;;;5.03;2.05;;;19.10;29.10;;;;;;5056480;28;20045;-81
2022/05/13 08:23:50;;;;;;;13.07;1.70;;;19.00;30.00;;;;;;5055267;28;20094;-81
2022/05/13 08:26:17;;;;;;;5.82;1.35;;;18.60;28.70;;;;;;5055864;28;20045;-82
2022/05/13 08:28:43;;;;;;;7.95;1.50;;;18.00;36.20;;;;;;5055399;28;20166;-82
2022/05/13 08:31:09;;;;;;;8.80;1.73;;;17.60;44.00;;;;;;5054444;28;20044;-82
2022/05/13 08:33:36;;;;;;;5.13;1.40;;;17.30;50.60;;;;;;5056296;28;20511;-81
2022/05/13 08:36:04;;;;;;;6.03;1.50;;;17.10;54.30;;;;;;5032722;28;20056;-83
2022/05/13 08:38:35;;;;;;;8.23;1.88;;;16.80;52.60;;;;;;5036963;28;20077;-82
2022/05/13 08:41:09;;;;;;;8.15;1.45;;;16.50;58.30;;;;;;5056009;28;20081;-82
2022/05/13 08:43:39;;;;;;;8.27;1.77;;;16.40;63.20;;;;;;5058070;28;20038;-83
2022/05/13 08:46:24;;;;;;;8.50;2.17;;;16.40;64.40;;;;;;5058037;28;20041;-83
2022/05/13 08:48:54;;;;;;;6.32;1.77;;;16.50;63.00;;;;;;5057634;28;20029;-83
2022/05/13 08:51:44;;;;;;;7.90;1.33;;;16.40;63.70;;;;;;5057644;28;20093;-81
2022/05/13 08:54:19;;;;;;;7.45;1.30;;;16.60;68.20;;;;;;5056909;28;20482;-82
2022/05/13 08:56:50;;;;;;;5.88;1.25;;;17.50;56.80;;;;;;5039443;28;20045;-81
2022/05/13 08:59:26;;;;;;;8.07;1.38;;;17.80;48.80;;;;;;5038843;28;20073;-82
2022/05/13 09:01:57;;;;;;;8.95;1.63;;;17.80;42.30;;;;;;5053884;28;20061;-82
2022/05/13 09:04:38;;;;;;;4.38;1.42;;;17.70;43.30;;;;;;5057885;28;20060;-83
2022/05/13 09:07:13;;;;;;;8.15;1.42;;;17.50;43.20;;;;;;5058784;28;20026;-83
2022/05/13 09:09:43;;;;;;;5.60;1.33;;;17.90;41.30;;;;;;5058790;28;20036;-81
2022/05/13 09:12:43;;;;;;;6.43;1.27;;;18.70;37.50;;;;;;5059172;28;20029;-83
2022/05/13 09:15:38;;;;;;;9.20;1.83;;;19.70;26.60;;;;;;5059217;28;20033;-82
2022/05/13 09:18:18;;;;;;;9.75;2.53;;;20.20;16.60;;;;;;5058352;28;20034;-82
2022/05/13 09:20:55;;;;;;;6.13;1.30;;;20.40;10.20;;;;;;5058426;28;20033;-82
2022/05/13 09:23:21;;;;;;;4.85;1.20;;;20.20;8.40;;;;;;5058648;28;20034;-82
2022/05/13 09:26:05;;;;;;;5.45;0.95;;;20.50;5.10;;;;;;5058558;28;20026;-81
2022/05/13 09:28:33;;;;;;;6.13;1.60;;;19.90;5.50;;;;;;5058681;28;20037;-83
2022/05/13 09:31:20;;;;;;;6.30;1.25;;;18.90;9.80;;;;;;5058539;28;20025;-82
2022/05/13 09:33:47;;;;;;;9.00;1.42;;;18.10;18.60;;;;;;5058671;28;20048;-83
2022/05/13 09:36:21;;;;;;;3.80;1.00;;;17.70;25.40;;;;;;5058757;28;20029;-82
2022/05/13 09:38:52;;;;;;;9.65;2.30;;;17.80;25.20;;;;;;5058796;28;20094;-82
2022/05/13 09:41:28;;;;;;;7.05;1.30;;;17.70;26.70;;;;;;5058794;28;20026;-83
2022/05/13 09:44:05;;;;;;;5.25;2.33;;;17.50;29.50;;;;;;5058927;28;20062;-82
2022/05/13 09:46:43;;;;;;;5.35;1.25;;;17.30;31.50;;;;;;5066173;28;20120;-82
2022/05/13 09:49:33;;;;;;;5.05;1.27;;;17.20;36.20;;;;;;5042281;28;20101;-82
2022/05/13 09:52:00;;;;;;;4.65;1.25;;;17.10;40.20;;;;;;5043610;28;20046;-83
2022/05/13 09:54:31;;;;;;;4.25;1.08;;;17.00;36.60;;;;;;5041807;28;20033;-82
2022/05/13 09:57:09;;;;;;;6.78;1.05;;;16.90;38.30;;;;;;5043945;28;20072;-83
2022/05/13 09:59:39;;;;;;;3.20;0.85;;;16.80;35.10;;;;;;5044170;28;20060;-81
2022/05/13 10:02:22;;;;;;;12.10;1.30;;;16.60;35.80;;;;;;5042860;28;20141;-81
2022/05/13 10:04:50;;;;;;;4.95;0.88;;;16.30;41.60;;;;;;5059078;28;20045;-83
2022/05/13 10:07:17;;;;;;;9.65;1.30;;;16.20;47.60;;;;;;5056848;28;20068;-81
2022/05/13 10:15:32;;;;;;;5.00;1.30;;;16.80;42.40;;;;;;5041994;28;20049;-82
2022/05/13 10:18:13;;;;;;;4.05;1.27;;;17.30;38.70;;;;;;5039574;28;20358;-82
2022/05/13 10:20:43;;;;;;;10.70;1.55;;;17.70;34.20;;;;;;5041911;28;20053;-81
2022/05/13 10:23:22;;;;;;;4.00;0.90;;;18.20;32.80;;;;;;5029955;28;20049;-81
2022/05/13 10:26:05;;;;;;;5.13;1.20;;;18.70;30.20;;;;;;5044866;28;20065;-82
2022/05/13 10:28:39;;;;;;;8.07;1.40;;;19.00;21.40;;;;;;5038604;28;20057;-81
2022/05/13 10:31:18;;;;;;;11.02;1.73;;;19.30;18.30;;;;;;5052528;28;20059;-83
2022/05/13 10:33:50;;;;;;;5.40;1.33;;;19.60;18.00;;;;;;5036832;28;20041;-83
2022/05/13 10:36:28;;;;;;;6.07;1.33;;;20.10;12.20;;;;;;5036601;28;20053;-80
2022/05/13 10:39:08;;;;;;;5.50;1.45;;;20.50;5.20;;;;;;5036348;28;20227;-81
2022/05/13 10:41:44;;;;;;;7.63;1.10;;;20.60;4.40;;;;;;5036265;28;20045;-81
2022/05/13 10:44:19;;;;;;;7.63;1.52;;;20.70;2.20;;;;;;5035263;28;20393;-81
2022/05/13 10:46:55;;;;;;;4.50;0.90;;;20.10;1.00;;;;;;5034867;28;20049;-81
2022/05/13 10:49:25;;;;;;;4.75;1.20;;;19.50;2.90;;;;;;5035108;28;20049;-80
2022/05/13 10:52:01;;;;;;;9.98;1.63;;;19.70;5.80;;;;;;5035706;28;20049;-81
2022/05/13 10:54:43;;;;;;;7.25;1.33;;;20.30;2.80;;;;;;5035339;28;20053;-79
2022/05/13 10:57:23;;;;;;;5.60;1.30;;;20.50;1.00;;;;;;5034979;28;20046;-81
2022/05/13 11:00:04;;;;;;;8.27;1.15;;;20.20;1.00;;;;;;5036366;28;20088;-81
2022/05/13 11:02:53;;;;;;;7.57;1.50;;;20.00;1.40;;;;;;5035181;28;20057;-80
2022/05/13 11:06:01;;;;;;;10.82;1.90;;;19.60;3.70;;;;;;5037063;28;20049;-82
2022/05/13 11:08:40;;;;;;;5.28;1.73;;;18.70;8.60;;;;;;5040432;28;20041;-82
2022/05/13 11:11:27;;;;;;;6.85;1.50;;;18.90;10.20;;;;;;5054203;28;20029;-81
2022/05/13 11:14:32;;;;;;;2.78;0.90;;;18.40;11.20;;;;;;5060775;28;20049;-80
2022/05/13 11:17:18;;;;;;;5.85;1.33;;;18.40;15.80;;;;;;5061364;28;20033;-81
2022/05/13 11:20:09;;;;;;;5.70;1.47;;;18.50;12.60;;;;;;5061105;28;20061;-80
2022/05/13 11:22:54;;;;;;;7.22;1.60;;;18.40;13.20;;;;;;5044717;28;20568;-81
2022/05/13 11:25:57;;;;;;;5.43;1.98;;;18.20;13.40;;;;;;5044487;28;20060;-79
2022/05/13 11:28:51;;;;;;;2.83;1.02;;;18.00;16.00;;;;;;5041470;28;20076;-80
2022/05/13 11:31:36;;;;;;;7.40;1.55;;;18.40;19.40;;;;;;5042393;28;20057;-80
2022/05/13 11:34:14;;;;;;;8.23;1.40;;;20.00;9.20;;;;;;5042284;28;20059;-80
2022/05/13 11:36:49;;;;;;;6.35;1.45;;;20.70;8.00;;;;;;5043045;28;20120;-80
2022/05/13 11:39:42;;;;;;;3.17;1.05;;;22.10;3.00;;;;;;5043204;28;20056;-79
2022/05/13 11:42:33;;;;;;;7.28;1.55;;;21.80;1.00;;;;;;5040928;28;20481;-79
2022/05/13 11:45:16;;;;;;;7.13;1.60;;;21.20;1.00;;;;;;5040786;28;20128;-79
2022/05/13 11:48:20;;;;;;;4.03;1.08;;;21.50;1.00;;;;;;5039207;28;20037;-80
2022/05/13 11:50:47;;;;;;;6.93;1.50;;;21.40;1.00;;;;;;5040502;28;20038;-79
2022/05/13 11:53:42;;;;;;;9.13;1.85;;;21.00;1.00;;;;;;5040857;28;20049;-80
2022/05/13 11:56:31;;;;;;;4.18;1.40;;;21.00;1.00;;;;;;5041196;28;20120;-80
2022/05/13 11:58:58;;;;;;;7.95;1.60;;;20.40;1.00;;;;;;5040995;28;20037;-78
2022/05/13 12:01:48;;;;;;;7.47;1.83;;;20.00;1.00;;;;;;5041024;28;20053;-79
2022/05/13 12:04:14;;;;;;;5.10;1.38;;;20.20;1.00;;;;;;5034594;28;20220;-80
2022/05/13 12:06:51;;;;;;;6.72;1.95;;;21.60;1.00;;;;;;5054797;28;20099;-79
2022/05/13 12:09:44;;;;;;;7.70;1.65;;;21.10;1.00;;;;;;5056380;28;20050;-79
2022/05/13 12:12:15;;;;;;;6.75;1.70;;;21.80;1.00;;;;;;5039888;28;20042;-79
2022/05/13 12:14:41;;;;;;;7.00;1.45;;;21.60;1.00;;;;;;5039616;28;20053;-79
2022/05/13 12:17:31;;;;;;;10.07;1.80;;;21.00;1.00;;;;;;5038773;28;20053;-80
2022/05/13 12:20:04;;;;;;;8.07;1.75;;;20.40;1.00;;;;;;5044487;28;20101;-80
2022/05/13 12:22:36;;;;;;;7.57;1.52;;;19.90;1.00;;;;;;5045642;28;20049;-79
2022/05/13 12:25:04;;;;;;;5.43;1.58;;;20.20;1.00;;;;;;5047164;28;20038;-79
2022/05/13 12:27:32;;;;;;;8.23;1.38;;;20.20;1.00;;;;;;5046686;28;20049;-80
2022/05/13 12:30:12;;;;;;;9.18;1.58;;;20.60;1.00;;;;;;5047908;28;20132;-79
2022/05/13 12:32:47;;;;;;;4.18;0.98;;;20.60;1.00;;;;;;5048213;28;20059;-80
2022/05/13 12:38:23;;;;;;;4.03;1.00;;;21.60;1.00;;;;;;5059933;28;20044;-81
2022/05/13 12:41:09;;;;;;;7.25;1.50;;;22.70;1.00;;;;;;5059902;28;20022;-81
2022/05/13 12:44:06;;;;;;;;;;;23.10;1.00;;;;;;5059741;28;20049;-80
2022/05/13 12:46:50;;;;;;;7.63;1.08;;;22.50;1.00;;;;;;5059352;28;19912;-80
2022/05/13 12:49:46;;;;;;;9.43;1.98;;;22.00;1.00;;;;;;5059536;28;20045;-80
2022/05/13 12:52:22;;;;;;;10.30;1.60;;;21.20;1.00;;;;;;5048716;28;20064;-80
2022/05/13 12:54:57;;;;;;;5.85;1.30;;;20.80;1.00;;;;;;5042511;28;20101;-80
2022/05/13 12:57:31;;;;;;;6.10;1.30;;;20.60;1.00;;;;;;5045428;28;20049;-79
2022/05/13 12:59:57;;;;;;;6.55;1.20;;;20.30;1.00;;;;;;5042955;28;20067;-80
2022/05/13 13:02:27;;;;;;;5.43;1.27;;;21.00;1.00;;;;;;5042710;28;20053;-80
2022/05/13 13:04:57;;;;;;;7.47;1.58;;;20.40;1.00;;;;;;5041612;28;20116;-79
2022/05/13 13:07:26;;;;;;;5.20;1.20;;;20.40;1.00;;;;;;5043236;28;20049;-80
2022/05/13 13:09:52;;;;;;;4.78;1.33;;;20.20;1.00;;;;;;5041585;28;20549;-80
2022/05/13 13:12:27;;;;;;;13.85;1.95;;;19.70;1.00;;;;;;5042268;28;20045;-78
2022/05/13 13:15:09;;;;;;;7.10;1.40;;;19.50;1.00;;;;;;5041997;28;20611;-79
2022/05/13 13:17:49;;;;;;;4.50;1.40;;;19.70;1.00;;;;;;5057986;28;20052;-78
2022/05/13 13:20:17;;;;;;;8.30;1.70;;;20.50;1.00;;;;;;5040403;28;20049;-79
2022/05/13 13:22:47;;;;;;;11.35;1.80;;;21.20;1.00;;;;;;5040071;28;20076;-81
2022/05/13 13:25:32;;;;;;;6.93;1.20;;;21.60;1.00;;;;;;5043224;28;20045;-79
2022/05/13 13:28:08;;;;;;;4.90;1.25;;;21.80;1.00;;;;;;5040378;28;20141;-79
2022/05/13 13:30:44;;;;;;;10.77;1.67;;;21.80;1.00;;;;;;5040863;28;20045;-80
2022/05/13 13:33:10;;;;;;;7.53;1.70;;;21.60;1.00;;;;;;5039147;28;20482;-79
2022/05/13 13:35:40;;;;;;;11.40;3.75;;;21.20;1.00;;;;;;5043610;28;20038;-78